createdAt,value
2023-05-14T00:06:24.355Z,1018.31
2023-05-14T00:21:24.228Z,1018.25
2023-05-14T00:36:25.331Z,1018.12
2023-05-14T00:51:25.918Z,1018.14
2023-05-14T01:06:26.566Z,1018.09
2023-05-14T01:21:27.070Z,1018.07
2023-05-14T01:36:27.692Z,1018.06
2023-05-14T01:51:27.781Z,1017.91
2023-05-14T02:06:28.423Z,1017.87
2023-05-14T02:21:28.438Z,1017.82
2023-05-14T02:36:28.546Z,1017.70
2023-05-14T02:51:28.622Z,1017.71
2023-05-14T03:06:29.855Z,1017.74
2023-05-14T03:21:30.363Z,1017.62
2023-05-14T03:36:30.473Z,1017.66
2023-05-14T03:51:30.587Z,1017.60
2023-05-14T04:06:30.627Z,1017.51
2023-05-14T04:21:30.790Z,1017.47
2023-05-14T04:36:30.895Z,1017.45
2023-05-14T04:51:31.571Z,1017.44
2023-05-14T05:06:31.666Z,1017.49
2023-05-14T05:21:31.637Z,1017.33
2023-05-14T05:36:31.762Z,1017.32
2023-05-14T05:51:31.869Z,1017.37
2023-05-14T06:06:31.939Z,1017.26
2023-05-14T06:21:32.506Z,1017.26
2023-05-14T06:36:32.601Z,1017.29
2023-05-14T06:51:33.294Z,1017.34
2023-05-14T07:06:33.726Z,1017.25
2023-05-14T07:21:34.349Z,1017.20
2023-05-14T07:36:34.992Z,1017.06
2023-05-14T07:51:36.938Z,1017.14
2023-05-14T08:06:37.429Z,1017.01
2023-05-14T08:21:38.072Z,1017.05
2023-05-14T08:36:38.143Z,1016.74
2023-05-14T08:51:38.300Z,1016.69
2023-05-14T09:06:38.860Z,1016.66
2023-05-14T09:21:38.875Z,1016.49
2023-05-14T09:36:39.018Z,1016.42
2023-05-14T09:51:39.144Z,1016.20
2023-05-14T10:06:39.349Z,1015.82
2023-05-14T10:21:39.307Z,1015.60
2023-05-14T10:36:40.414Z,1015.41
2023-05-14T10:51:40.566Z,1015.26
2023-05-14T11:06:40.572Z,1014.99
2023-05-14T11:21:40.729Z,1014.99
2023-05-14T11:36:40.768Z,1014.73
2023-05-14T11:51:40.904Z,1014.55
2023-05-14T12:06:40.915Z,1014.44
2023-05-14T12:21:41.086Z,1014.35
2023-05-14T12:36:41.617Z,1014.38
2023-05-14T12:51:41.704Z,1014.27
2023-05-14T13:06:42.677Z,1014.09
2023-05-14T13:21:43.347Z,1013.96
2023-05-14T13:36:44.541Z,1013.74
2023-05-14T13:51:44.483Z,1013.60
2023-05-14T14:06:44.536Z,1013.49
2023-05-14T14:21:44.734Z,1013.34
2023-05-14T14:36:45.144Z,1013.12
2023-05-14T14:51:45.370Z,1013.01
2023-05-14T15:06:45.262Z,1012.87
2023-05-14T15:21:45.669Z,1012.79
2023-05-14T15:36:45.888Z,1012.67
2023-05-14T15:51:46.311Z,1012.54
2023-05-14T16:06:46.504Z,1012.42
2023-05-14T16:21:46.697Z,1012.27
2023-05-14T16:36:47.017Z,1012.25
2023-05-14T16:51:47.138Z,1012.08
2023-05-14T17:06:47.354Z,1012.04
2023-05-14T17:21:47.567Z,1012.03
2023-05-14T17:36:50.175Z,1012.07
2023-05-14T17:51:51.061Z,1011.96
2023-05-14T18:06:51.186Z,1011.98
2023-05-14T18:21:51.122Z,1012.11
2023-05-14T18:36:51.514Z,1012.08
2023-05-14T18:51:51.624Z,1012.10
2023-05-14T19:06:51.591Z,1012.18
2023-05-14T19:21:52.183Z,1012.10
2023-05-14T19:36:52.664Z,1012.18
2023-05-14T19:51:54.292Z,1012.06
2023-05-14T20:06:54.290Z,1011.93
2023-05-14T20:21:54.866Z,1011.79
2023-05-14T20:36:55.850Z,1011.76
2023-05-14T20:51:56.295Z,1011.57
2023-05-14T21:06:56.938Z,1011.44
2023-05-14T21:21:57.586Z,1011.35
2023-05-14T21:36:57.649Z,1011.18
2023-05-14T21:51:58.171Z,1011.16
2023-05-14T22:06:58.294Z,1010.98
2023-05-14T22:21:58.394Z,1010.82
2023-05-14T22:36:59.014Z,1010.74
2023-05-14T22:51:59.618Z,1010.66
2023-05-14T23:06:59.760Z,1010.47
2023-05-14T23:21:59.740Z,1010.29
2023-05-14T23:37:00.864Z,1010.26
2023-05-14T23:52:01.660Z,1010.02
